createdAt,value
2022-10-06T00:00:16.692Z,28
2022-10-06T00:05:16.551Z,25
2022-10-06T00:10:16.979Z,25
2022-10-06T00:15:16.617Z,26
2022-10-06T00:20:16.587Z,28
2022-10-06T00:25:16.532Z,24
2022-10-06T00:30:16.796Z,27
2022-10-06T00:35:16.651Z,27
2022-10-06T00:40:16.651Z,30
2022-10-06T00:45:17.139Z,28
2022-10-06T00:50:16.687Z,32
2022-10-06T00:55:16.692Z,30
2022-10-06T01:00:16.819Z,27
2022-10-06T01:05:16.867Z,27
2022-10-06T01:10:16.712Z,27
2022-10-06T01:15:16.728Z,31
2022-10-06T01:20:16.984Z,35
2022-10-06T01:25:17.001Z,35
2022-10-06T01:30:17.024Z,35
2022-10-06T01:35:16.776Z,35
2022-10-06T01:40:16.869Z,32
2022-10-06T01:45:16.955Z,34
2022-10-06T01:50:17.249Z,34
2022-10-06T01:55:16.925Z,35
2022-10-06T02:00:17.075Z,30
2022-10-06T02:05:16.817Z,32
2022-10-06T02:10:16.864Z,28
2022-10-06T02:15:17.089Z,31
2022-10-06T02:20:17.529Z,27
2022-10-06T02:25:16.890Z,29
2022-10-06T02:30:17.305Z,25
2022-10-06T02:35:17.126Z,24
2022-10-06T02:40:16.946Z,23
2022-10-06T02:45:16.954Z,24
2022-10-06T02:50:17.064Z,26
2022-10-06T02:55:16.876Z,28
2022-10-06T03:00:17.038Z,23
2022-10-06T03:05:17.059Z,26
2022-10-06T03:10:17.020Z,26
2022-10-06T03:15:17.289Z,22
2022-10-06T03:20:17.021Z,19
2022-10-06T03:25:17.137Z,19
2022-10-06T03:30:17.070Z,19
2022-10-06T03:35:17.264Z,20
2022-10-06T03:40:17.275Z,19
2022-10-06T03:45:17.209Z,21
2022-10-06T03:50:17.021Z,24
2022-10-06T03:55:17.060Z,25
2022-10-06T04:00:18.353Z,21
2022-10-06T04:05:18.277Z,22
2022-10-06T04:10:18.069Z,22
2022-10-06T04:15:18.381Z,22
2022-10-06T04:20:18.259Z,21
2022-10-06T04:25:18.322Z,23
2022-10-06T04:30:18.309Z,22
2022-10-06T04:35:16.180Z,20
2022-10-06T04:40:16.360Z,20
2022-10-06T04:45:16.442Z,21
2022-10-06T04:50:16.252Z,21
2022-10-06T04:55:16.509Z,23
2022-10-06T05:00:16.291Z,21
2022-10-06T05:05:16.280Z,20
2022-10-06T05:20:21.943Z,19
2022-10-06T05:25:16.240Z,18
2022-10-06T05:30:16.507Z,18
2022-10-06T05:35:17.317Z,17
2022-10-06T05:40:16.342Z,18
2022-10-06T05:45:16.422Z,16
2022-10-06T05:50:16.450Z,18
2022-10-06T05:55:16.464Z,18
2022-10-06T06:00:16.442Z,18
2022-10-06T06:05:16.449Z,18
2022-10-06T06:10:16.688Z,16
2022-10-06T06:15:16.597Z,16
2022-10-06T06:20:16.382Z,14
2022-10-06T06:25:16.484Z,14
2022-10-06T06:30:16.702Z,14
2022-10-06T06:35:16.617Z,15
2022-10-06T06:40:16.676Z,16
2022-10-06T06:45:16.494Z,15
2022-10-06T06:50:16.501Z,16
2022-10-06T06:55:16.790Z,17
2022-10-06T07:00:16.645Z,18
2022-10-06T07:05:16.556Z,21
2022-10-06T07:10:16.594Z,21
2022-10-06T07:15:16.750Z,20
2022-10-06T07:20:17.026Z,21
2022-10-06T07:25:16.470Z,19
2022-10-06T07:30:16.870Z,19
2022-10-06T07:35:16.499Z,17
2022-10-06T07:40:18.124Z,18
2022-10-06T07:45:16.846Z,18
2022-10-06T07:50:16.758Z,18
2022-10-06T07:55:16.600Z,18
2022-10-06T08:00:17.016Z,18
2022-10-06T08:05:16.778Z,19
2022-10-06T08:10:16.746Z,19
2022-10-06T08:15:16.870Z,21
2022-10-06T08:20:16.653Z,20
2022-10-06T08:25:17.176Z,21
2022-10-06T08:30:16.854Z,16
2022-10-06T08:35:16.623Z,17
2022-10-06T08:40:16.939Z,18
2022-10-06T08:45:16.745Z,19
2022-10-06T08:50:16.801Z,20
2022-10-06T08:55:16.763Z,19
2022-10-06T09:00:21.317Z,19
2022-10-06T09:05:17.674Z,19
2022-10-06T09:10:16.757Z,18
2022-10-06T09:15:17.150Z,19
2022-10-06T09:20:16.861Z,20
2022-10-06T09:25:16.759Z,20
2022-10-06T09:30:16.901Z,20
2022-10-06T09:35:16.962Z,20
2022-10-06T09:40:17.883Z,18
2022-10-06T09:45:16.956Z,17
2022-10-06T09:50:17.134Z,17
2022-10-06T09:55:16.804Z,17
2022-10-06T10:00:17.060Z,16
2022-10-06T10:05:16.825Z,16
2022-10-06T10:10:17.033Z,15
2022-10-06T10:15:17.076Z,14
2022-10-06T10:20:17.141Z,14
2022-10-06T10:25:17.040Z,16
2022-10-06T10:30:17.461Z,15
2022-10-06T10:35:16.949Z,15
2022-10-06T10:40:16.978Z,16
2022-10-06T10:45:17.037Z,16
2022-10-06T10:50:17.048Z,15
2022-10-06T10:55:17.057Z,15
2022-10-06T11:00:17.286Z,14
2022-10-06T11:05:17.121Z,16
2022-10-06T11:10:18.024Z,16
2022-10-06T11:15:17.068Z,14
2022-10-06T11:20:17.429Z,14
2022-10-06T11:25:17.101Z,14
2022-10-06T11:30:17.848Z,14
2022-10-06T11:35:17.554Z,13
2022-10-06T11:40:17.529Z,13
2022-10-06T11:45:17.122Z,13
2022-10-06T11:50:17.200Z,13
2022-10-06T11:55:17.169Z,13
2022-10-06T12:00:17.222Z,12
2022-10-06T12:05:54.321Z,12
2022-10-06T12:10:17.474Z,13
2022-10-06T12:17:08.420Z,13
2022-10-06T12:17:19.098Z,13
2022-10-06T12:20:17.387Z,14
2022-10-06T12:25:17.143Z,14
2022-10-06T12:30:17.601Z,14
2022-10-06T12:35:17.209Z,14
2022-10-06T12:40:17.646Z,14
2022-10-06T12:45:17.588Z,14
2022-10-06T12:50:17.386Z,14
2022-10-06T12:55:17.274Z,14
2022-10-06T13:00:17.487Z,14
2022-10-06T13:05:17.315Z,14
2022-10-06T13:10:18.870Z,14
2022-10-06T13:15:17.446Z,14
2022-10-06T13:20:17.352Z,14
2022-10-06T13:25:17.292Z,14
2022-10-06T13:30:17.591Z,14
2022-10-06T13:35:18.298Z,15
2022-10-06T13:40:21.974Z,13
2022-10-06T13:45:17.662Z,12
2022-10-06T13:50:19.912Z,13
2022-10-06T13:55:17.390Z,13
2022-10-06T14:00:17.593Z,12
2022-10-06T14:05:17.374Z,13
2022-10-06T14:10:17.566Z,14
2022-10-06T14:15:17.726Z,14
2022-10-06T14:20:17.601Z,13
2022-10-06T14:25:17.412Z,13
2022-10-06T14:30:17.571Z,12
2022-10-06T14:35:17.588Z,13
2022-10-06T14:40:17.860Z,13
2022-10-06T14:45:17.494Z,14
2022-10-06T14:50:17.855Z,14
2022-10-06T15:10:23.446Z,14
2022-10-06T15:15:17.572Z,14
2022-10-06T15:20:17.626Z,14
2022-10-06T15:25:17.640Z,14
2022-10-06T15:30:17.783Z,14
2022-10-06T15:35:18.525Z,12
2022-10-06T15:40:17.645Z,11
2022-10-06T15:45:17.903Z,12
2022-10-06T15:50:18.917Z,11
2022-10-06T15:55:17.774Z,12
2022-10-06T16:00:17.828Z,12
2022-10-06T16:05:17.637Z,13
2022-10-06T16:10:17.764Z,11
2022-10-06T16:15:17.774Z,11
2022-10-06T16:20:17.747Z,11
2022-10-06T16:25:17.722Z,11
2022-10-06T16:30:17.845Z,12
2022-10-06T16:35:18.614Z,12
2022-10-06T16:40:17.896Z,11
2022-10-06T16:45:17.792Z,13
2022-10-06T16:50:17.966Z,12
2022-10-06T16:55:17.723Z,12
2022-10-06T17:00:17.847Z,13
2022-10-06T17:05:17.906Z,13
2022-10-06T17:10:20.973Z,12
2022-10-06T17:15:18.206Z,10
2022-10-06T17:20:17.911Z,12
2022-10-06T17:25:17.793Z,12
2022-10-06T17:30:18.139Z,11
2022-10-06T17:35:17.967Z,11
2022-10-06T17:40:18.038Z,10
2022-10-06T17:45:21.307Z,10
2022-10-06T17:50:17.939Z,10
2022-10-06T17:55:17.967Z,8
2022-10-06T18:00:18.036Z,9
2022-10-06T18:05:17.854Z,9
2022-10-06T18:10:18.141Z,8
2022-10-06T18:15:18.187Z,8
2022-10-06T18:25:17.833Z,8
2022-10-06T18:30:18.327Z,9
2022-10-06T18:36:29.136Z,6
2022-10-06T18:40:18.029Z,7
2022-10-06T18:45:18.131Z,5
2022-10-06T18:50:18.053Z,6
2022-10-06T18:55:18.123Z,5
2022-10-06T19:00:18.728Z,5
2022-10-06T19:05:18.323Z,5
2022-10-06T19:10:18.086Z,5
2022-10-06T19:15:21.103Z,6
2022-10-06T19:20:18.092Z,7
2022-10-06T19:25:18.429Z,5
2022-10-06T19:30:18.357Z,7
2022-10-06T19:35:18.050Z,7
2022-10-06T19:40:18.177Z,5
2022-10-06T19:45:18.173Z,5
2022-10-06T19:50:18.212Z,5
2022-10-06T19:55:16.385Z,7
2022-10-06T20:00:16.244Z,7
2022-10-06T20:05:16.387Z,7
2022-10-06T20:10:16.177Z,7
2022-10-06T20:15:16.465Z,5
2022-10-06T20:20:17.323Z,7
2022-10-06T20:25:16.224Z,7
2022-10-06T20:30:16.337Z,5
2022-10-06T20:35:16.297Z,6
2022-10-06T20:40:16.527Z,5
2022-10-06T20:45:16.354Z,5
2022-10-06T20:50:16.468Z,6
2022-10-06T20:55:16.266Z,7
2022-10-06T21:00:16.531Z,5
2022-10-06T21:05:16.457Z,5
2022-10-06T21:10:16.549Z,5
2022-10-06T21:15:16.530Z,7
2022-10-06T21:20:16.743Z,7
2022-10-06T21:25:16.395Z,6
2022-10-06T21:30:16.442Z,6
2022-10-06T21:35:16.435Z,6
2022-10-06T21:40:16.395Z,7
2022-10-06T21:45:16.897Z,8
2022-10-06T21:50:16.396Z,8
2022-10-06T21:55:16.606Z,9
2022-10-06T22:00:16.547Z,10
2022-10-06T22:05:16.564Z,9
2022-10-06T22:10:16.510Z,10
2022-10-06T22:15:16.642Z,9
2022-10-06T22:20:16.682Z,9
2022-10-06T22:25:16.556Z,9
2022-10-06T22:30:16.607Z,8
2022-10-06T22:35:16.635Z,7
2022-10-06T22:40:16.701Z,7
2022-10-06T22:45:17.364Z,8
2022-10-06T22:50:16.612Z,8
2022-10-06T22:55:16.844Z,8
2022-10-06T23:00:16.642Z,8
2022-10-06T23:05:16.563Z,8
2022-10-06T23:10:16.563Z,8
2022-10-06T23:15:16.599Z,9
2022-10-06T23:20:16.637Z,10
2022-10-06T23:25:17.077Z,10
2022-10-06T23:30:16.708Z,11
2022-10-06T23:35:17.963Z,11
2022-10-06T23:40:16.827Z,10
2022-10-06T23:45:16.949Z,10
2022-10-06T23:50:16.721Z,10
2022-10-06T23:55:16.684Z,9
